Time;durP1;ratioP1;P1;durP2;ratioP2;P2;SDS_P1;SDS_P2;PMS_P1;PMS_P2;Temp;Humidity;BMP_temperature;BMP_pressure;BME280_temperature;BME280_humidity;BME280_pressure;Samples;Min_cycle;Max_cycle;Signal;HPM_P1;HPM_P2
2023/04/15 00:00:03;;;;;;;8.52;2.70;;;6.20;98.30;;;;;;5006539;28;20050;-76
2023/04/15 00:02:30;;;;;;;8.90;2.92;;;6.20;98.40;;;;;;5002128;28;20026;-76
2023/04/15 00:04:55;;;;;;;10.18;3.03;;;6.20;98.70;;;;;;5001541;28;20153;-75
2023/04/15 00:07:21;;;;;;;7.15;2.72;;;6.20;98.90;;;;;;5003632;28;20120;-75
2023/04/15 00:09:46;;;;;;;6.60;2.45;;;6.20;99.00;;;;;;5006248;28;20026;-76
2023/04/15 00:12:12;;;;;;;9.95;2.65;;;6.10;99.10;;;;;;5003087;28;20045;-76
2023/04/15 00:14:38;;;;;;;6.38;2.53;;;6.10;99.20;;;;;;5001460;28;20383;-77
2023/04/15 00:17:04;;;;;;;7.13;2.75;;;6.10;99.30;;;;;;5004546;28;20082;-76
2023/04/15 00:19:30;;;;;;;10.23;2.80;;;6.10;99.50;;;;;;5002367;28;20153;-77
2023/04/15 00:21:56;;;;;;;7.28;2.53;;;6.10;99.60;;;;;;5005666;28;20036;-76
2023/04/15 00:24:22;;;;;;;7.90;2.03;;;6.00;99.70;;;;;;5004697;28;20030;-76
2023/04/15 00:26:48;;;;;;;5.60;2.85;;;6.00;99.90;;;;;;5004760;28;20017;-75
2023/04/15 00:29:14;;;;;;;8.10;3.47;;;6.00;99.90;;;;;;5000144;28;20140;-75
2023/04/15 00:31:40;;;;;;;9.68;4.38;;;5.90;99.90;;;;;;5008414;28;20054;-76
2023/04/15 00:34:05;;;;;;;12.30;4.97;;;5.90;99.90;;;;;;4999777;28;20040;-77
2023/04/15 00:36:32;;;;;;;10.88;5.43;;;5.90;99.90;;;;;;5003956;28;20491;-75
2023/04/15 00:38:58;;;;;;;10.93;5.55;;;5.90;99.90;;;;;;5004604;28;20029;-75
2023/04/15 00:41:24;;;;;;;10.80;5.38;;;5.90;99.90;;;;;;5004894;28;20042;-75
2023/04/15 00:43:50;;;;;;;10.95;5.47;;;5.90;99.90;;;;;;5001893;28;20025;-76
2023/04/15 00:46:19;;;;;;;14.95;6.05;;;5.80;99.90;;;;;;5021946;28;20031;-76
2023/04/15 00:48:46;;;;;;;10.32;5.72;;;5.70;99.90;;;;;;5002739;28;20037;-76
2023/04/15 00:51:12;;;;;;;11.50;5.90;;;5.60;99.90;;;;;;5005195;28;20110;-75
2023/04/15 00:53:38;;;;;;;14.98;5.95;;;5.60;99.90;;;;;;5002726;28;20493;-76
2023/04/15 00:56:05;;;;;;;10.57;5.50;;;5.60;99.90;;;;;;4999360;28;20073;-76
2023/04/15 00:58:30;;;;;;;14.32;5.97;;;5.60;99.90;;;;;;5004419;28;20022;-76
2023/04/15 01:00:57;;;;;;;14.18;5.63;;;5.50;99.90;;;;;;5002149;28;20034;-76
2023/04/15 01:03:23;;;;;;;12.30;5.43;;;5.40;99.90;;;;;;5002341;28;20076;-75
2023/04/15 01:05:50;;;;;;;8.95;5.43;;;5.40;99.90;;;;;;5003245;28;20410;-76
2023/04/15 01:08:15;;;;;;;12.02;4.90;;;5.40;99.90;;;;;;5005704;28;20486;-76
2023/04/15 01:10:41;;;;;;;12.80;4.95;;;5.40;99.90;;;;;;5005727;28;20041;-75
2023/04/15 01:13:06;;;;;;;9.88;4.97;;;5.40;99.90;;;;;;5002588;28;20037;-76
2023/04/15 01:15:34;;;;;;;10.23;5.32;;;5.40;99.90;;;;;;5001925;28;20030;-76
2023/04/15 01:18:01;;;;;;;9.77;4.45;;;5.40;99.90;;;;;;5004011;28;20115;-76
2023/04/15 01:20:28;;;;;;;8.15;3.67;;;5.30;99.90;;;;;;5005006;28;20018;-76
2023/04/15 01:22:55;;;;;;;4.95;3.00;;;5.30;99.90;;;;;;5002597;28;20069;-76
2023/04/15 01:25:32;;;;;;;8.07;2.60;;;5.30;99.90;;;;;;5002791;28;20034;-76
2023/04/15 01:27:58;;;;;;;7.18;2.13;;;5.30;99.90;;;;;;5005861;28;20084;-76
2023/04/15 01:30:24;;;;;;;10.27;2.45;;;5.30;99.90;;;;;;5002954;28;20478;-76
2023/04/15 01:32:51;;;;;;;7.43;1.67;;;5.30;99.90;;;;;;5006173;28;20060;-76
2023/04/15 01:35:17;;;;;;;5.93;2.03;;;5.30;99.90;;;;;;4999351;28;20058;-75
2023/04/15 01:37:42;;;;;;;5.13;1.80;;;5.30;99.90;;;;;;5001641;28;20076;-76
2023/04/15 01:40:08;;;;;;;5.03;1.98;;;5.30;99.90;;;;;;5003027;28;20463;-76
2023/04/15 01:42:36;;;;;;;4.82;2.15;;;5.20;99.90;;;;;;5004140;28;20402;-76
2023/04/15 01:45:02;;;;;;;8.85;2.55;;;5.20;99.90;;;;;;5006632;28;20021;-76
2023/04/15 01:47:28;;;;;;;5.13;3.10;;;5.10;99.90;;;;;;5005472;28;20030;-76
2023/04/15 01:49:53;;;;;;;8.07;3.05;;;5.10;99.90;;;;;;5003459;28;20038;-76
2023/04/15 01:52:19;;;;;;;7.03;3.22;;;5.10;99.90;;;;;;5003212;28;20058;-76
2023/04/15 01:54:45;;;;;;;8.63;2.92;;;5.10;99.90;;;;;;5006882;28;20060;-78
2023/04/15 01:57:11;;;;;;;7.13;2.95;;;5.10;99.90;;;;;;5003906;28;20050;-77
2023/04/15 01:59:37;;;;;;;9.07;2.97;;;5.00;99.90;;;;;;5007351;28;20022;-76
2023/04/15 02:02:03;;;;;;;6.40;2.90;;;5.00;99.90;;;;;;5005467;28;20072;-77
2023/04/15 02:04:28;;;;;;;7.40;2.58;;;4.90;99.90;;;;;;5006329;28;20037;-76
2023/04/15 02:06:54;;;;;;;8.68;3.47;;;4.90;99.90;;;;;;5004504;28;20469;-76
2023/04/15 02:09:20;;;;;;;6.65;2.70;;;4.80;99.90;;;;;;5007573;28;20026;-76
2023/04/15 02:11:45;;;;;;;9.55;3.60;;;4.80;99.90;;;;;;5002700;28;20034;-77
2023/04/15 02:14:11;;;;;;;11.07;2.42;;;4.80;99.90;;;;;;5007419;28;20072;-76
2023/04/15 02:16:37;;;;;;;7.22;2.72;;;4.80;99.90;;;;;;5006066;28;20026;-76
2023/04/15 02:19:03;;;;;;;5.45;2.22;;;4.70;99.90;;;;;;5010792;28;20025;-76
2023/04/15 02:21:29;;;;;;;5.10;2.03;;;4.70;99.90;;;;;;5008149;28;20022;-76
2023/04/15 02:23:55;;;;;;;10.95;2.40;;;4.70;99.90;;;;;;5010413;28;20045;-76
2023/04/15 02:26:24;;;;;;;6.72;2.17;;;4.70;99.90;;;;;;5006201;28;20368;-76
2023/04/15 02:28:52;;;;;;;4.70;2.30;;;4.70;99.90;;;;;;5007380;28;20052;-76
2023/04/15 02:31:18;;;;;;;6.88;2.33;;;4.70;99.90;;;;;;5009592;28;20058;-76
2023/04/15 02:33:44;;;;;;;4.38;1.85;;;4.70;99.90;;;;;;5017323;28;20547;-77
2023/04/15 02:36:11;;;;;;;5.35;1.92;;;4.70;99.90;;;;;;5008292;28;20112;-76
2023/04/15 02:38:39;;;;;;;10.43;2.72;;;4.70;99.90;;;;;;4999670;28;21354;-77
2023/04/15 02:41:04;;;;;;;7.43;2.47;;;4.60;99.90;;;;;;5008618;28;20033;-76
2023/04/15 02:43:30;;;;;;;6.00;2.60;;;4.60;99.90;;;;;;5006947;28;20029;-74
2023/04/15 02:45:56;;;;;;;11.68;3.67;;;4.50;99.90;;;;;;5002334;28;20497;-75
2023/04/15 02:48:21;;;;;;;4.65;2.80;;;4.50;99.90;;;;;;5003488;28;20109;-76
2023/04/15 02:50:47;;;;;;;5.38;3.08;;;4.40;99.90;;;;;;5010548;28;20037;-76
2023/04/15 02:53:13;;;;;;;8.07;3.88;;;4.40;99.90;;;;;;5006743;28;20029;-77
2023/04/15 02:55:39;;;;;;;10.02;3.83;;;4.30;99.90;;;;;;5001076;28;20415;-76
2023/04/15 02:58:06;;;;;;;8.23;3.47;;;4.40;99.90;;;;;;5002364;28;20057;-76
2023/04/15 03:00:32;;;;;;;10.65;3.55;;;4.30;99.90;;;;;;5009510;28;20029;-76
2023/04/15 03:03:01;;;;;;;7.75;3.60;;;4.30;99.90;;;;;;5016818;28;20056;-76
2023/04/15 03:05:27;;;;;;;6.85;3.45;;;4.20;99.90;;;;;;5004460;28;20026;-76
2023/04/15 03:07:52;;;;;;;6.57;2.45;;;4.20;99.90;;;;;;5004277;28;20040;-77
2023/04/15 03:10:19;;;;;;;8.85;2.67;;;4.10;99.90;;;;;;5003791;28;20093;-76
2023/04/15 03:12:44;;;;;;;7.35;3.15;;;4.10;99.90;;;;;;5004409;28;20025;-76
2023/04/15 03:15:11;;;;;;;6.13;2.97;;;4.10;99.90;;;;;;5010683;28;20022;-76
2023/04/15 03:17:37;;;;;;;9.35;2.60;;;4.00;99.90;;;;;;5004058;28;20403;-76
2023/04/15 03:20:04;;;;;;;10.77;2.60;;;4.00;99.90;;;;;;5003589;28;20025;-76
2023/04/15 03:22:31;;;;;;;6.07;2.30;;;4.00;99.90;;;;;;5006446;28;20034;-76
2023/04/15 03:24:56;;;;;;;6.63;2.53;;;4.00;99.90;;;;;;5006114;28;20099;-76
2023/04/15 03:27:22;;;;;;;6.13;2.65;;;4.00;99.90;;;;;;5007820;28;20029;-76
2023/04/15 03:29:48;;;;;;;8.32;3.15;;;4.00;99.90;;;;;;5007568;28;20041;-76
2023/04/15 03:32:14;;;;;;;6.65;2.47;;;3.90;99.90;;;;;;5007149;28;20586;-76
2023/04/15 03:34:41;;;;;;;7.00;2.45;;;3.80;99.90;;;;;;5009056;28;20534;-76
2023/04/15 03:37:06;;;;;;;9.10;2.58;;;3.80;99.90;;;;;;5005476;28;20030;-76
2023/04/15 03:39:32;;;;;;;8.82;3.20;;;3.80;99.90;;;;;;5008115;28;20022;-76
2023/04/15 03:41:58;;;;;;;9.98;3.47;;;3.80;99.90;;;;;;5009763;28;20031;-76
2023/04/15 03:44:25;;;;;;;7.88;3.67;;;3.80;99.90;;;;;;5006085;28;20142;-76
2023/04/15 03:46:51;;;;;;;8.13;2.88;;;3.80;99.90;;;;;;5004559;28;20076;-76
2023/04/15 03:49:18;;;;;;;7.75;3.17;;;3.80;99.90;;;;;;5006721;28;20030;-76
2023/04/15 03:51:44;;;;;;;7.22;3.13;;;3.80;99.90;;;;;;5005082;28;20030;-76
2023/04/15 03:54:10;;;;;;;4.75;1.92;;;3.80;99.90;;;;;;5007441;28;20068;-76
2023/04/15 03:56:35;;;;;;;8.20;2.22;;;3.80;99.90;;;;;;5005385;28;20021;-76
2023/04/15 03:59:01;;;;;;;5.20;2.45;;;3.80;99.90;;;;;;5005400;28;20029;-76
2023/04/15 04:01:27;;;;;;;7.78;2.95;;;3.70;99.90;;;;;;5006385;28;20024;-76
2023/04/15 04:03:52;;;;;;;10.25;2.47;;;3.70;99.90;;;;;;5005007;28;20478;-77
2023/04/15 04:06:18;;;;;;;5.38;2.33;;;3.70;99.90;;;;;;5000765;28;20071;-75
2023/04/15 04:08:44;;;;;;;8.85;2.97;;;3.60;99.90;;;;;;4998690;28;20496;-76
2023/04/15 04:11:09;;;;;;;6.50;2.67;;;3.60;99.90;;;;;;5007449;28;20030;-76
2023/04/15 04:13:35;;;;;;;6.03;3.03;;;3.60;99.90;;;;;;5005172;28;20034;-76
2023/04/15 04:16:03;;;;;;;5.63;2.33;;;3.60;99.90;;;;;;5007792;28;20030;-77
2023/04/15 04:18:30;;;;;;;7.53;2.28;;;3.60;99.90;;;;;;5009570;28;20034;-75
2023/04/15 04:20:55;;;;;;;4.55;2.20;;;3.60;99.90;;;;;;5015065;28;20089;-74
2023/04/15 04:23:21;;;;;;;5.93;2.25;;;3.60;99.90;;;;;;5009117;28;20077;-75
2023/04/15 04:25:47;;;;;;;4.97;2.50;;;3.60;99.90;;;;;;5014495;28;20026;-75
2023/04/15 04:28:12;;;;;;;5.05;2.60;;;3.60;99.90;;;;;;5016730;28;20034;-76
2023/04/15 04:30:38;;;;;;;6.65;2.47;;;3.60;99.90;;;;;;5018700;28;20034;-75
2023/04/15 04:33:04;;;;;;;9.18;2.30;;;3.60;99.90;;;;;;5003247;28;20462;-76
2023/04/15 04:35:30;;;;;;;6.55;2.15;;;3.60;99.90;;;;;;5011476;28;20026;-76
2023/04/15 04:37:56;;;;;;;6.90;2.35;;;3.60;99.90;;;;;;5005286;28;20089;-76
2023/04/15 04:40:21;;;;;;;4.82;2.10;;;3.60;99.90;;;;;;5003549;28;20018;-75
2023/04/15 04:42:47;;;;;;;6.35;2.28;;;3.60;99.90;;;;;;5009991;28;20431;-76
2023/04/15 04:45:12;;;;;;;5.90;2.03;;;3.60;99.90;;;;;;5005097;28;20072;-76
2023/04/15 04:47:38;;;;;;;6.45;2.65;;;3.60;99.90;;;;;;5005938;28;20034;-75
2023/04/15 04:50:04;;;;;;;6.28;2.45;;;3.60;99.90;;;;;;5008448;28;20026;-76
2023/04/15 04:52:30;;;;;;;9.30;2.13;;;3.60;99.90;;;;;;5001600;28;20027;-76
2023/04/15 04:54:56;;;;;;;5.22;2.40;;;3.60;99.90;;;;;;5005036;28;20415;-75
2023/04/15 04:57:21;;;;;;;4.88;2.10;;;3.60;99.90;;;;;;5005930;28;20151;-77
2023/04/15 04:59:47;;;;;;;8.77;2.22;;;3.60;99.90;;;;;;5006611;28;20018;-76
2023/04/15 05:02:13;;;;;;;4.80;2.28;;;3.60;99.90;;;;;;5023792;28;20154;-76
2023/04/15 05:04:38;;;;;;;6.75;2.45;;;3.60;99.90;;;;;;4999635;28;20032;-77
2023/04/15 05:07:04;;;;;;;5.20;2.13;;;3.60;99.90;;;;;;5016566;28;20497;-77
2023/04/15 05:09:31;;;;;;;7.47;3.35;;;3.60;99.90;;;;;;5001876;28;20164;-76
2023/04/15 05:11:57;;;;;;;6.85;2.53;;;3.60;99.90;;;;;;5003716;28;20115;-77
2023/04/15 05:14:22;;;;;;;4.82;3.20;;;3.60;99.90;;;;;;5007463;28;20112;-76
2023/04/15 05:16:48;;;;;;;5.75;3.13;;;3.60;99.90;;;;;;5004703;28;20383;-77
2023/04/15 05:19:13;;;;;;;6.32;2.40;;;3.60;99.90;;;;;;4998999;28;20390;-76
2023/04/15 05:21:39;;;;;;;8.25;3.30;;;3.70;99.90;;;;;;5003413;28;20147;-77
2023/04/15 05:24:05;;;;;;;10.07;3.20;;;3.70;99.90;;;;;;5005663;28;20034;-76
2023/04/15 05:26:31;;;;;;;10.25;4.45;;;3.70;99.90;;;;;;5019986;28;20030;-76
2023/04/15 05:28:57;;;;;;;6.85;3.45;;;3.70;99.90;;;;;;5004201;28;20086;-76
2023/04/15 05:31:22;;;;;;;6.15;3.42;;;3.80;99.90;;;;;;5010867;28;20029;-76
2023/04/15 05:33:48;;;;;;;7.55;3.40;;;3.90;99.90;;;;;;5008259;28;20062;-76
2023/04/15 05:36:14;;;;;;;4.78;2.72;;;3.90;99.90;;;;;;5007672;28;20149;-76
2023/04/15 05:38:40;;;;;;;4.28;2.75;;;4.00;99.90;;;;;;5010271;28;20033;-76
2023/04/15 05:41:06;;;;;;;6.95;2.97;;;4.10;99.90;;;;;;5008392;28;20022;-77
2023/04/15 05:43:32;;;;;;;7.85;2.67;;;4.10;99.90;;;;;;5009085;28;20041;-76
2023/04/15 05:45:57;;;;;;;5.28;2.25;;;4.20;99.90;;;;;;5009821;28;20049;-76
2023/04/15 05:48:23;;;;;;;9.05;2.75;;;4.20;99.90;;;;;;5011102;28;20030;-76
2023/04/15 05:50:49;;;;;;;7.28;3.22;;;4.40;99.90;;;;;;5008423;28;20034;-76
2023/04/15 05:53:15;;;;;;;5.28;2.80;;;4.40;99.90;;;;;;5005286;28;20026;-76
2023/04/15 05:55:40;;;;;;;14.82;3.08;;;4.50;99.90;;;;;;5007359;28;20483;-76
2023/04/15 05:58:06;;;;;;;5.90;3.17;;;4.70;99.90;;;;;;5005847;28;20033;-77
2023/04/15 06:00:32;;;;;;;6.57;2.80;;;4.80;99.90;;;;;;5005849;28;20033;-76
2023/04/15 06:02:59;;;;;;;5.32;2.58;;;4.90;99.90;;;;;;5006160;28;20035;-77
2023/04/15 06:05:25;;;;;;;6.68;3.30;;;5.10;99.90;;;;;;5006308;28;20022;-76
2023/04/15 06:07:51;;;;;;;7.53;2.70;;;5.10;99.90;;;;;;5005853;28;20469;-76
2023/04/15 06:10:17;;;;;;;4.18;2.17;;;5.20;99.90;;;;;;5005888;28;20029;-76
2023/04/15 06:12:42;;;;;;;7.78;3.08;;;5.30;99.90;;;;;;5004420;28;20076;-76
2023/04/15 06:15:10;;;;;;;5.07;3.22;;;5.30;99.90;;;;;;5009091;28;20439;-76
2023/04/15 06:17:36;;;;;;;9.85;2.58;;;5.40;99.90;;;;;;5004071;28;20415;-76
2023/04/15 06:20:02;;;;;;;8.27;2.40;;;5.40;99.90;;;;;;5008348;28;20478;-76
2023/04/15 06:22:27;;;;;;;7.50;2.42;;;5.50;99.90;;;;;;5005496;28;20113;-76
2023/04/15 06:24:53;;;;;;;6.47;2.17;;;5.50;99.90;;;;;;5007377;28;20057;-76
2023/04/15 06:27:19;;;;;;;10.27;2.70;;;5.50;99.90;;;;;;5010724;28;20030;-76
2023/04/15 06:29:45;;;;;;;9.48;3.72;;;5.50;99.90;;;;;;5009168;28;20482;-76
2023/04/15 06:32:11;;;;;;;6.65;3.65;;;5.50;99.90;;;;;;5013111;28;20542;-76
2023/04/15 06:34:37;;;;;;;10.73;3.25;;;5.60;99.90;;;;;;5004564;28;20033;-76
2023/04/15 06:37:03;;;;;;;7.47;3.35;;;5.60;99.90;;;;;;5006826;28;20368;-76
2023/04/15 06:39:28;;;;;;;7.28;3.83;;;5.70;99.90;;;;;;5006166;28;20424;-76
2023/04/15 06:41:55;;;;;;;11.45;3.88;;;5.70;99.90;;;;;;5004021;28;20038;-76
2023/04/15 06:44:21;;;;;;;7.85;3.75;;;5.80;99.90;;;;;;5008313;28;20026;-76
2023/04/15 06:46:46;;;;;;;9.15;3.47;;;5.80;99.90;;;;;;5006442;28;20079;-76
2023/04/15 06:49:12;;;;;;;5.45;3.70;;;5.80;99.90;;;;;;5019970;28;20105;-76
2023/04/15 06:51:37;;;;;;;6.45;3.00;;;5.90;99.90;;;;;;5006932;28;20026;-76
2023/04/15 06:54:05;;;;;;;8.18;3.25;;;5.90;99.90;;;;;;5007169;28;20123;-76
2023/04/15 06:56:33;;;;;;;7.88;4.20;;;5.90;99.90;;;;;;5010434;28;20398;-76
2023/04/15 06:58:59;;;;;;;11.50;3.80;;;5.90;99.90;;;;;;5004706;28;20053;-76
2023/04/15 07:01:25;;;;;;;8.23;4.10;;;5.90;99.90;;;;;;5008094;28;20494;-76
2023/04/15 07:03:51;;;;;;;8.40;4.22;;;5.90;99.90;;;;;;5009020;28;20026;-77
2023/04/15 07:06:17;;;;;;;8.27;3.70;;;5.90;99.90;;;;;;5008346;28;20439;-76
2023/04/15 07:08:42;;;;;;;10.27;3.92;;;6.00;99.90;;;;;;5004288;28;20481;-76
2023/04/15 07:11:08;;;;;;;9.60;3.38;;;6.00;99.90;;;;;;5001549;28;20030;-76
2023/04/15 07:13:33;;;;;;;7.43;3.78;;;6.10;99.90;;;;;;5005490;28;20406;-76
2023/04/15 07:15:59;;;;;;;8.63;3.97;;;6.10;99.90;;;;;;5012538;28;20030;-76
2023/04/15 07:18:25;;;;;;;8.18;3.88;;;6.10;99.90;;;;;;5005800;28;20018;-76
2023/04/15 07:20:51;;;;;;;7.75;3.95;;;6.20;99.90;;;;;;5006257;28;20105;-77
2023/04/15 07:23:17;;;;;;;7.38;4.22;;;6.20;99.90;;;;;;5001712;28;20034;-77
2023/04/15 07:25:42;;;;;;;6.47;3.70;;;6.30;99.90;;;;;;5010815;28;20510;-76
2023/04/15 07:28:08;;;;;;;9.05;3.85;;;6.30;99.90;;;;;;5007314;28;20114;-76
2023/04/15 07:30:34;;;;;;;8.82;4.15;;;6.40;99.90;;;;;;5009320;28;20132;-76
2023/04/15 07:33:01;;;;;;;10.65;4.07;;;6.50;99.90;;;;;;5008547;28;20112;-76
2023/04/15 07:35:28;;;;;;;9.85;3.58;;;6.60;99.90;;;;;;5005575;28;21263;-76
2023/04/15 07:37:53;;;;;;;9.32;4.03;;;6.70;99.90;;;;;;5008391;28;20040;-76
2023/04/15 07:40:19;;;;;;;9.10;4.30;;;6.80;99.90;;;;;;5007787;28;20120;-76
2023/04/15 07:42:45;;;;;;;6.28;3.83;;;6.90;99.90;;;;;;5006759;28;20045;-76
2023/04/15 07:45:11;;;;;;;7.03;3.33;;;7.00;99.90;;;;;;5007170;28;20030;-75
2023/04/15 07:47:37;;;;;;;7.00;3.28;;;7.10;99.90;;;;;;5009489;28;20376;-76
2023/04/15 07:50:03;;;;;;;8.15;3.70;;;7.20;99.90;;;;;;5007468;28;20045;-76
2023/04/15 07:52:28;;;;;;;7.72;3.38;;;7.30;99.90;;;;;;5006499;28;20041;-75
2023/04/15 07:54:54;;;;;;;6.82;3.00;;;7.40;99.90;;;;;;5010910;28;20423;-75
2023/04/15 07:57:20;;;;;;;9.30;3.35;;;7.60;99.90;;;;;;5007014;28;20033;-75
2023/04/15 07:59:45;;;;;;;6.05;3.20;;;7.70;99.90;;;;;;5020242;28;20076;-75
2023/04/15 08:02:11;;;;;;;8.18;3.88;;;7.90;99.90;;;;;;5006895;28;20371;-76
2023/04/15 08:04:37;;;;;;;7.85;3.47;;;8.00;99.90;;;;;;5008050;28;20087;-75
2023/04/15 08:07:03;;;;;;;4.78;2.92;;;8.00;99.90;;;;;;5003279;28;20028;-76
2023/04/15 08:09:29;;;;;;;9.82;2.95;;;8.10;99.90;;;;;;5002940;28;20029;-76
2023/04/15 08:11:55;;;;;;;7.57;2.35;;;8.20;99.90;;;;;;5003708;28;20132;-76
2023/04/15 08:14:21;;;;;;;62.75;44.92;;;8.30;99.90;;;;;;5004290;28;20030;-75
2023/04/15 08:16:47;;;;;;;19.95;14.05;;;8.40;99.90;;;;;;5022089;28;20037;-76
2023/04/15 08:19:13;;;;;;;9.07;3.75;;;8.50;99.90;;;;;;5008163;28;20079;-75
2023/04/15 08:21:39;;;;;;;7.65;2.85;;;8.60;99.90;;;;;;5005029;28;20050;-77
2023/04/15 08:24:05;;;;;;;7.45;2.78;;;8.60;99.90;;;;;;5021230;28;20128;-75
2023/04/15 08:26:31;;;;;;;4.32;2.28;;;8.70;99.90;;;;;;5008567;28;20107;-76
2023/04/15 08:28:57;;;;;;;7.10;2.20;;;8.70;99.90;;;;;;5002820;28;20030;-76
2023/04/15 08:31:25;;;;;;;10.23;3.35;;;8.90;99.90;;;;;;5009776;28;20517;-76
2023/04/15 08:33:51;;;;;;;6.57;3.30;;;8.90;99.90;;;;;;5004502;28;20069;-76
2023/04/15 08:36:17;;;;;;;8.98;3.22;;;9.00;99.90;;;;;;5005018;28;20096;-76
2023/04/15 08:38:43;;;;;;;8.13;3.60;;;9.10;99.90;;;;;;5009708;28;20128;-76
2023/04/15 08:41:22;;;;;;;10.52;3.35;;;9.20;99.90;;;;;;5003715;28;20026;-76
2023/04/15 08:43:52;;;;;;;8.05;2.58;;;9.30;99.90;;;;;;5004344;28;20120;-75
2023/04/15 08:46:19;;;;;;;7.35;3.03;;;9.30;99.90;;;;;;5005948;28;20501;-76
2023/04/15 08:48:46;;;;;;;7.13;2.40;;;9.50;99.90;;;;;;5007537;28;20053;-77
2023/04/15 08:51:15;;;;;;;4.68;2.38;;;9.60;99.90;;;;;;5001832;28;20041;-75
2023/04/15 08:53:42;;;;;;;8.80;3.08;;;9.70;99.90;;;;;;5002994;28;20030;-76
2023/04/15 08:56:10;;;;;;;6.00;2.97;;;9.80;99.90;;;;;;5006883;28;20556;-76
2023/04/15 08:58:36;;;;;;;6.63;2.85;;;9.90;99.90;;;;;;5007215;28;20034;-75
2023/04/15 09:01:02;;;;;;;10.55;3.03;;;10.00;99.90;;;;;;5005482;28;20105;-76
2023/04/15 09:03:27;;;;;;;7.20;3.42;;;10.00;99.90;;;;;;5003215;28;20526;-76
2023/04/15 09:05:53;;;;;;;5.90;2.70;;;10.10;99.90;;;;;;5011858;28;20422;-76
2023/04/15 09:08:19;;;;;;;8.07;2.75;;;10.20;99.90;;;;;;5010242;28;20026;-78
2023/04/15 09:10:45;;;;;;;7.40;2.35;;;10.30;99.90;;;;;;5007512;28;20027;-76
2023/04/15 09:13:11;;;;;;;6.00;2.83;;;10.30;99.90;;;;;;5010371;28;20033;-76
2023/04/15 09:15:39;;;;;;;10.50;2.97;;;10.50;99.90;;;;;;5015651;28;20054;-76
2023/04/15 09:18:05;;;;;;;9.10;2.70;;;10.50;99.80;;;;;;5011223;28;20060;-76
2023/04/15 09:20:40;;;;;;;9.02;2.85;;;10.50;99.10;;;;;;5008310;28;20475;-76
2023/04/15 09:23:16;;;;;;;7.30;3.08;;;10.60;99.00;;;;;;5007011;28;20068;-76
2023/04/15 09:25:42;;;;;;;13.55;3.90;;;10.70;98.70;;;;;;5011624;28;20048;-77
2023/04/15 09:28:08;;;;;;;6.82;2.78;;;10.80;98.70;;;;;;5010935;28;20491;-76
2023/04/15 09:30:34;;;;;;;7.60;2.05;;;10.90;98.10;;;;;;5030230;28;20121;-76
2023/04/15 09:33:01;;;;;;;7.20;2.70;;;11.00;97.70;;;;;;5011627;28;20104;-76
2023/04/15 09:35:27;;;;;;;6.97;2.80;;;11.10;97.20;;;;;;5011464;28;20096;-76
2023/04/15 09:38:04;;;;;;;4.90;2.67;;;11.20;97.60;;;;;;5008721;28;20029;-77
2023/04/15 09:40:51;;;;;;;2.70;1.90;;;11.20;96.90;;;;;;4998369;28;20297;-76
2023/04/15 09:43:16;;;;;;;10.32;2.50;;;11.30;96.10;;;;;;5009957;28;20739;-77
2023/04/15 09:45:49;;;;;;;7.45;2.47;;;11.40;96.10;;;;;;5010774;28;20038;-77
2023/04/15 09:48:25;;;;;;;6.80;2.10;;;11.40;94.80;;;;;;5009312;28;20022;-77
2023/04/15 09:50:55;;;;;;;5.03;2.45;;;11.40;94.50;;;;;;5008614;28;20124;-75
2023/04/15 09:53:23;;;;;;;8.52;2.47;;;11.50;94.50;;;;;;5007374;28;20036;-75
2023/04/15 09:55:53;;;;;;;8.18;2.65;;;11.50;95.30;;;;;;5013958;28;20049;-76
2023/04/15 09:58:19;;;;;;;6.70;2.70;;;11.50;95.60;;;;;;5006092;28;20036;-77
2023/04/15 10:00:48;;;;;;;8.90;2.72;;;11.60;96.00;;;;;;5012273;28;20030;-76
2023/04/15 10:03:30;;;;;;;6.05;2.58;;;11.60;95.90;;;;;;5002557;28;20034;-77
2023/04/15 10:05:58;;;;;;;5.70;2.28;;;11.60;95.20;;;;;;5003355;28;20109;-77
2023/04/15 10:08:29;;;;;;;5.20;2.42;;;11.70;95.10;;;;;;5009949;28;20183;-77
2023/04/15 10:10:55;;;;;;;5.25;2.28;;;11.70;94.40;;;;;;5007973;28;20069;-78
2023/04/15 10:13:23;;;;;;;4.38;2.40;;;11.70;94.20;;;;;;5008050;28;20478;-78
2023/04/15 10:15:57;;;;;;;7.30;2.20;;;11.80;94.30;;;;;;5007688;28;20033;-77
2023/04/15 10:18:25;;;;;;;7.68;2.65;;;11.90;94.00;;;;;;5006880;28;20048;-77
2023/04/15 10:20:52;;;;;;;6.32;2.65;;;12.00;94.10;;;;;;5008273;28;20049;-77
2023/04/15 10:23:19;;;;;;;5.43;2.58;;;12.10;93.80;;;;;;5007489;28;20033;-78
2023/04/15 10:25:46;;;;;;;8.52;2.65;;;12.20;92.60;;;;;;5010042;28;20066;-77
2023/04/15 10:28:12;;;;;;;5.78;2.35;;;12.20;92.40;;;;;;5019371;28;20084;-77
2023/04/15 10:30:38;;;;;;;5.18;2.45;;;12.30;92.10;;;;;;5007906;28;20017;-77
2023/04/15 10:33:05;;;;;;;7.30;2.13;;;12.40;91.70;;;;;;5007639;28;20491;-77
2023/04/15 10:35:33;;;;;;;4.07;1.90;;;12.40;91.80;;;;;;5009925;28;20026;-77
2023/04/15 10:37:58;;;;;;;8.80;3.90;;;12.50;91.80;;;;;;5010316;28;20025;-77
2023/04/15 10:40:33;;;;;;;7.63;2.97;;;12.70;91.20;;;;;;5009579;28;20033;-77
2023/04/15 10:43:01;;;;;;;6.00;2.30;;;12.70;90.90;;;;;;5011785;28;20087;-77
2023/04/15 10:45:35;;;;;;;11.63;3.50;;;12.70;90.80;;;;;;5005992;28;20031;-77
2023/04/15 10:48:03;;;;;;;7.95;2.25;;;12.70;90.60;;;;;;5010829;28;20032;-77
2023/04/15 10:50:32;;;;;;;7.43;2.20;;;12.70;90.40;;;;;;5008981;28;20534;-77
2023/04/15 10:53:01;;;;;;;4.32;2.17;;;12.60;90.20;;;;;;5010787;28;20029;-77
2023/04/15 10:55:31;;;;;;;4.93;1.73;;;12.60;90.00;;;;;;5007240;28;20030;-77
2023/04/15 10:57:59;;;;;;;5.82;2.13;;;12.50;89.90;;;;;;5011026;28;20021;-77
2023/04/15 11:00:29;;;;;;;8.02;2.28;;;12.50;90.00;;;;;;5027319;28;20022;-77
2023/04/15 11:03:06;;;;;;;6.65;2.35;;;12.50;90.10;;;;;;5027047;28;20026;-76
2023/04/15 11:05:52;;;;;;;6.80;2.83;;;12.40;89.50;;;;;;5008220;28;20049;-77
2023/04/15 11:08:37;;;;;;;8.13;2.42;;;12.30;88.80;;;;;;5004394;28;20057;-77
2023/04/15 11:11:03;;;;;;;5.13;2.20;;;12.30;89.80;;;;;;5011987;28;20038;-77
2023/04/15 11:13:32;;;;;;;3.40;1.95;;;12.30;90.10;;;;;;5012108;28;20109;-77
2023/04/15 11:16:00;;;;;;;6.20;2.40;;;12.30;88.80;;;;;;5023614;28;20210;-77
2023/04/15 11:18:28;;;;;;;5.32;2.35;;;12.40;89.80;;;;;;5007912;28;20028;-77
2023/04/15 11:21:02;;;;;;;4.43;2.08;;;12.40;88.20;;;;;;5011948;28;20045;-77
2023/04/15 11:23:40;;;;;;;5.15;2.17;;;12.40;88.40;;;;;;5029828;28;20428;-78
2023/04/15 11:26:11;;;;;;;5.60;2.10;;;12.50;88.80;;;;;;5010710;28;20034;-77
2023/04/15 11:28:41;;;;;;;8.00;2.70;;;12.60;88.10;;;;;;5008707;28;20037;-77
2023/04/15 11:31:16;;;;;;;4.35;1.95;;;12.60;87.00;;;;;;5010138;28;20129;-78
2023/04/15 11:34:01;;;;;;;4.22;2.05;;;12.70;87.10;;;;;;5005679;28;20030;-78
2023/04/15 11:36:30;;;;;;;8.07;2.13;;;12.80;87.20;;;;;;5008395;28;20022;-78
2023/04/15 11:38:58;;;;;;;8.02;2.42;;;12.80;86.50;;;;;;5009342;28;20055;-79
2023/04/15 11:41:23;;;;;;;6.97;2.83;;;12.80;86.60;;;;;;5007338;28;20036;-79
2023/04/15 11:43:50;;;;;;;6.68;3.15;;;12.90;86.80;;;;;;5026350;28;20029;-78
2023/04/15 11:46:16;;;;;;;7.47;3.28;;;12.90;87.00;;;;;;5019453;28;20080;-78
2023/04/15 11:48:45;;;;;;;10.70;4.65;;;12.80;85.90;;;;;;5011060;28;20034;-78
2023/04/15 11:51:12;;;;;;;7.90;2.67;;;12.80;86.20;;;;;;5007726;28;20026;-78
2023/04/15 11:53:45;;;;;;;17.45;7.63;;;12.80;86.80;;;;;;5002408;28;20037;-76
2023/04/15 11:56:17;;;;;;;10.20;5.43;;;12.80;86.70;;;;;;5008592;28;20022;-76
2023/04/15 11:58:45;;;;;;;6.30;2.40;;;12.90;86.10;;;;;;5002805;28;20026;-76
2023/04/15 12:01:10;;;;;;;10.00;3.10;;;12.90;85.20;;;;;;5007700;28;20018;-76
2023/04/15 12:03:41;;;;;;;4.95;2.55;;;12.90;85.30;;;;;;5004082;28;20030;-75
2023/04/15 12:06:20;;;;;;;6.35;2.17;;;13.00;85.10;;;;;;5003244;28;22831;-77
2023/04/15 12:08:57;;;;;;;5.95;2.28;;;13.00;84.70;;;;;;5006015;28;20030;-78
2023/04/15 12:11:25;;;;;;;6.13;1.88;;;13.00;85.10;;;;;;5004649;28;20033;-77
2023/04/15 12:13:54;;;;;;;7.03;1.55;;;13.00;83.90;;;;;;5003842;28;20438;-77
2023/04/15 12:16:22;;;;;;;5.03;2.00;;;13.00;82.60;;;;;;5003253;28;20069;-77
2023/04/15 12:18:52;;;;;;;8.50;2.45;;;13.00;82.10;;;;;;5007746;28;20038;-77
2023/04/15 12:21:22;;;;;;;9.98;2.55;;;13.10;81.00;;;;;;5015043;28;20077;-75
2023/04/15 12:23:53;;;;;;;8.27;2.28;;;13.10;81.30;;;;;;5024745;28;20045;-75
2023/04/15 12:26:30;;;;;;;9.60;2.58;;;13.20;81.50;;;;;;5049161;28;20358;-78
2023/04/15 12:29:06;;;;;;;7.10;2.20;;;13.30;81.00;;;;;;5026332;28;20073;-75
2023/04/15 12:31:32;;;;;;;5.40;2.50;;;13.30;80.80;;;;;;5010868;28;20026;-77
2023/04/15 12:33:59;;;;;;;3.90;2.17;;;13.30;80.80;;;;;;5011151;28;20033;-77
2023/04/15 12:36:26;;;;;;;4.15;1.90;;;13.30;81.40;;;;;;5008209;28;20022;-77
2023/04/15 12:38:52;;;;;;;4.75;2.08;;;13.40;80.60;;;;;;5007344;28;20029;-76
2023/04/15 12:41:18;;;;;;;4.03;2.10;;;13.40;79.40;;;;;;5009745;28;20018;-77
2023/04/15 12:43:45;;;;;;;4.07;2.05;;;13.40;79.60;;;;;;5007371;28;20038;-77
2023/04/15 12:46:12;;;;;;;6.47;2.50;;;13.50;79.90;;;;;;5008620;28;20608;-78
2023/04/15 12:48:37;;;;;;;5.03;2.13;;;13.50;79.90;;;;;;5007632;28;20112;-78
2023/04/15 12:51:03;;;;;;;3.50;1.88;;;13.50;79.70;;;;;;5021692;28;20243;-77